This is the latest recevied weather packets stored in our database for station/object DO1BDB-12. If no packets are shown the sender has not sent any weather packets the latest 10 day(s).
| Time | Temp. | Humidity | Pressure | Rain* | Wind** | Luminosity | Snow |
|---|---|---|---|---|---|---|---|
| 1788170541 | 26.11° C | 51% | 100.9 hPa | - | - | - | - |
| 1788170475 | 26.11° C | 50% | 100.9 hPa | - | - | - | - |
| 1788170410 | 25.56° C | 51% | 100.9 hPa | - | - | - | - |
| 1788170344 | 26.67° C | 49% | 100.9 hPa | - | - | - | - |
| 1788170278 | 27.22° C | 49% | 100.9 hPa | - | - | - | - |
| 1788170212 | 26.67° C | 48% | 100.9 hPa | - | - | - | - |
| 1788170159 | 26.67° C | 48% | 100.9 hPa | - | - | - | - |
| 1788170080 | 25.56° C | 51% | 100.9 hPa | - | - | - | - |
| 1788170015 | 25.56° C | 51% | 100.9 hPa | - | - | - | - |
| 1788169949 | 27.22° C | 47% | 100.9 hPa | - | - | - | - |
| 1788169883 | 27.22° C | 47% | 100.9 hPa | - | - | - | - |
| 1788169817 | 29.44° C | 45% | 100.9 hPa | - | - | - | - |
| 1788169751 | 28.33° C | 45% | 100.9 hPa | - | - | - | - |
| 1788169685 | 30° C | 41% | 100.9 hPa | - | - | - | - |
| 1788169620 | 31.67° C | 41% | 100.9 hPa | - | - | - | - |
| 1788169554 | 28.89° C | 43% | 100.9 hPa | - | - | - | - |
| 1788169488 | 30° C | 42% | 100.9 hPa | - | - | - | - |
| 1788169422 | 30° C | 42% | 100.9 hPa | - | - | - | - |
| 1788169361 | 30.56° C | 42% | 100.9 hPa | - | - | - | - |
| 1788169290 | 29.44° C | 44% | 100.9 hPa | - | - | - | - |
| 1788169224 | 28.33° C | 45% | 100.9 hPa | - | - | - | - |
| 1788169159 | 28.89° C | 44% | 100.9 hPa | - | - | - | - |
| 1788169093 | 27.22° C | 49% | 100.9 hPa | - | - | - | - |
| 1788169027 | 26.67° C | 52% | 100.9 hPa | - | - | - | - |
| 1788168962 | 26.11° C | 53% | 100.9 hPa | - | - | - | - |
* Rain since midnight (hover to see other rain measurements)
** Current wind speed in m/s (hover to see current wind gust speed)